Gütersloh, Germany

10:05 AM CEST am 25. Juli 2016 (GMT +0200)
GT-Pavenstaedt | | Change Station

Höhe 240 ft 51.91 °N, 8.35 °E | Updated 14 seconds ago

Scattered Clouds
Teils Wolkig
76.1 °F
gefühlte 78 °F
N
0.4
Wind Wechselnd Wind aus Süd-Südost
Gusts 2.5 mph

Heute
Max. -- | schwach -- °F
--% Regenrisiko
Gestern
Max. -- | schwach -- °F
Precip. -- inch
Druck 30.09 inch
Sichtweite 4.3 Meilen
Wolken Teils Wolkig 2000 ft
Hitzeindex 78 °F
Taupunkt 67 °F
Feuchtigkeit 74%
Regen 0.00 inch
Schneehöhe Nicht verfügbar..
5:38 AM 9:26 PM
Drittes Viertel, 68% visible
METAR EDLP 250750Z 29006KT 240V320 7000 SCT020 22/17 Q1019
Druck 30.09 inch
Sichtweite 4.3 Meilen
Wolken Teils Wolkig 2000 ft
Hitzeindex 78 °F
Taupunkt 67 °F
Feuchtigkeit 74%
Regen 0.00 inch
Schneehöhe Nicht verfügbar..
5:38 AM 9:26 PM
Drittes Viertel, 68% visible
METAR EDLP 250750Z 29006KT 240V320 7000 SCT020 22/17 Q1019

10-Day Weather Forecast

×

Almanac

Astronomie

Jul. 25, 2016 Aufgang Untergang
Genaue Zeit
Bürgerliche Dämmerung
Nautische Dämmerung
Astronomische Dämmerung
Mond
Länge des sichtbaren Lichts
Tageslänge
Tomorrow will be .
, % of the Moon is Illuminated

Heutige Rekorde

Country Highs Country Lows

Community

WunderPhotos

Upload Photos

1,927,274 Fotos hochgeladen!

WunderBlog® & News

Nearby

Luftqualität

  Luftqualität LQ Index Schadstoff
Not available.

Schneehöhe

Station Depth Höhe

Erdbebenaktivität

Stadt Distance Mag. Time & Date
Minimum magnitude displayed is 2.5.

küstennahe Wassertemperaturen

Ort Temperatur

Stations

Wetterstationen in der Umgebung

Stationsstandort Temp. Windchill Taupunkt Feuchtigkeit Wind Precip. Höhe Aktualisiert Art